sensor_id;sensor_type;location;lat;lon;timestamp;temperature;humidity
28677;DHT22;15858;48.338;11.078;2022-07-23T00:00:53;23.50;99.90
28677;DHT22;15858;48.338;11.078;2022-07-23T00:03:20;23.50;99.90
28677;DHT22;15858;48.338;11.078;2022-07-23T00:05:46;23.50;99.90
28677;DHT22;15858;48.338;11.078;2022-07-23T00:08:13;23.50;99.90
28677;DHT22;15858;48.338;11.078;2022-07-23T00:10:40;23.50;99.90
28677;DHT22;15858;48.338;11.078;2022-07-23T00:13:07;23.50;99.90
28677;DHT22;15858;48.338;11.078;2022-07-23T00:15:34;23.50;99.90
28677;DHT22;15858;48.338;11.078;2022-07-23T00:18:00;23.50;99.90
28677;DHT22;15858;48.338;11.078;2022-07-23T00:20:27;23.50;99.90
28677;DHT22;15858;48.338;11.078;2022-07-23T00:22:55;23.50;99.90
28677;DHT22;15858;48.338;11.078;2022-07-23T00:25:23;23.40;99.90
28677;DHT22;15858;48.338;11.078;2022-07-23T00:27:59;23.30;99.90
28677;DHT22;15858;48.338;11.078;2022-07-23T00:30:27;23.30;99.90
28677;DHT22;15858;48.338;11.078;2022-07-23T00:32:56;23.20;99.90
28677;DHT22;15858;48.338;11.078;2022-07-23T00:35:28;23.20;99.90
28677;DHT22;15858;48.338;11.078;2022-07-23T00:37:56;23.10;99.90
28677;DHT22;15858;48.338;11.078;2022-07-23T00:40:24;23.00;99.90
28677;DHT22;15858;48.338;11.078;2022-07-23T00:42:51;22.90;99.90
28677;DHT22;15858;48.338;11.078;2022-07-23T00:45:18;23.00;99.90
28677;DHT22;15858;48.338;11.078;2022-07-23T00:47:45;23.00;99.90
28677;DHT22;15858;48.338;11.078;2022-07-23T00:50:12;23.00;99.90
28677;DHT22;15858;48.338;11.078;2022-07-23T00:52:39;23.10;99.90
28677;DHT22;15858;48.338;11.078;2022-07-23T00:55:08;23.10;99.90
28677;DHT22;15858;48.338;11.078;2022-07-23T00:57:35;23.00;99.90
28677;DHT22;15858;48.338;11.078;2022-07-23T01:00:04;22.80;99.90
28677;DHT22;15858;48.338;11.078;2022-07-23T01:02:30;22.80;99.90
28677;DHT22;15858;48.338;11.078;2022-07-23T01:04:57;22.50;99.90
28677;DHT22;15858;48.338;11.078;2022-07-23T01:07:24;22.40;99.90
28677;DHT22;15858;48.338;11.078;2022-07-23T01:09:53;22.20;99.90
28677;DHT22;15858;48.338;11.078;2022-07-23T01:12:20;21.80;99.90
28677;DHT22;15858;48.338;11.078;2022-07-23T01:14:58;21.60;99.90
28677;DHT22;15858;48.338;11.078;2022-07-23T01:17:25;21.50;99.90
28677;DHT22;15858;48.338;11.078;2022-07-23T01:19:52;21.30;99.90
28677;DHT22;15858;48.338;11.078;2022-07-23T01:22:21;21.10;99.90
28677;DHT22;15858;48.338;11.078;2022-07-23T01:24:48;20.80;99.90
28677;DHT22;15858;48.338;11.078;2022-07-23T01:27:15;20.70;99.90
28677;DHT22;15858;48.338;11.078;2022-07-23T01:29:42;20.40;99.90
28677;DHT22;15858;48.338;11.078;2022-07-23T01:32:08;20.30;99.90
28677;DHT22;15858;48.338;11.078;2022-07-23T01:34:35;20.10;99.90
28677;DHT22;15858;48.338;11.078;2022-07-23T01:37:02;20.00;99.90
28677;DHT22;15858;48.338;11.078;2022-07-23T01:39:28;19.90;99.90
28677;DHT22;15858;48.338;11.078;2022-07-23T01:41:55;19.70;99.90
28677;DHT22;15858;48.338;11.078;2022-07-23T01:44:22;19.60;99.90
28677;DHT22;15858;48.338;11.078;2022-07-23T01:46:48;19.50;99.90
28677;DHT22;15858;48.338;11.078;2022-07-23T01:49:15;19.50;99.90
28677;DHT22;15858;48.338;11.078;2022-07-23T01:51:42;19.50;99.90
28677;DHT22;15858;48.338;11.078;2022-07-23T01:54:08;19.80;99.90
28677;DHT22;15858;48.338;11.078;2022-07-23T01:56:35;19.90;99.90
28677;DHT22;15858;48.338;11.078;2022-07-23T01:59:02;20.10;99.90
28677;DHT22;15858;48.338;11.078;2022-07-23T02:01:29;20.00;99.90
28677;DHT22;15858;48.338;11.078;2022-07-23T02:03:56;19.90;99.90
28677;DHT22;15858;48.338;11.078;2022-07-23T02:06:22;19.90;99.90
28677;DHT22;15858;48.338;11.078;2022-07-23T02:08:49;20.10;99.90
28677;DHT22;15858;48.338;11.078;2022-07-23T02:11:16;20.00;99.90
28677;DHT22;15858;48.338;11.078;2022-07-23T02:13:42;19.90;99.90
28677;DHT22;15858;48.338;11.078;2022-07-23T02:16:09;19.90;99.90
28677;DHT22;15858;48.338;11.078;2022-07-23T02:18:36;19.90;99.90
28677;DHT22;15858;48.338;11.078;2022-07-23T02:21:02;20.00;99.90
28677;DHT22;15858;48.338;11.078;2022-07-23T02:23:29;20.00;99.90
28677;DHT22;15858;48.338;11.078;2022-07-23T02:25:56;20.00;99.90
28677;DHT22;15858;48.338;11.078;2022-07-23T02:28:22;20.10;99.90
28677;DHT22;15858;48.338;11.078;2022-07-23T02:30:49;20.20;99.90
28677;DHT22;15858;48.338;11.078;2022-07-23T02:33:16;20.10;99.90
28677;DHT22;15858;48.338;11.078;2022-07-23T02:35:42;20.00;99.90
28677;DHT22;15858;48.338;11.078;2022-07-23T02:38:09;19.80;99.90
28677;DHT22;15858;48.338;11.078;2022-07-23T02:40:36;19.60;99.90
28677;DHT22;15858;48.338;11.078;2022-07-23T02:43:03;19.50;99.90
28677;DHT22;15858;48.338;11.078;2022-07-23T02:45:29;19.60;99.90
28677;DHT22;15858;48.338;11.078;2022-07-23T02:47:56;19.70;99.90
28677;DHT22;15858;48.338;11.078;2022-07-23T02:50:23;19.80;99.90
28677;DHT22;15858;48.338;11.078;2022-07-23T02:52:50;19.70;99.90
28677;DHT22;15858;48.338;11.078;2022-07-23T02:55:17;19.60;99.90
28677;DHT22;15858;48.338;11.078;2022-07-23T02:57:44;19.60;99.90
28677;DHT22;15858;48.338;11.078;2022-07-23T03:00:11;19.70;99.90
28677;DHT22;15858;48.338;11.078;2022-07-23T03:02:38;19.60;99.90
28677;DHT22;15858;48.338;11.078;2022-07-23T03:05:04;19.70;99.90
28677;DHT22;15858;48.338;11.078;2022-07-23T03:07:31;19.70;99.90
28677;DHT22;15858;48.338;11.078;2022-07-23T03:09:58;19.70;99.90
28677;DHT22;15858;48.338;11.078;2022-07-23T03:12:24;19.80;99.90
28677;DHT22;15858;48.338;11.078;2022-07-23T03:14:51;20.00;99.90
28677;DHT22;15858;48.338;11.078;2022-07-23T03:17:18;19.90;99.90
28677;DHT22;15858;48.338;11.078;2022-07-23T03:19:45;19.60;99.90
28677;DHT22;15858;48.338;11.078;2022-07-23T03:22:11;19.60;99.90
28677;DHT22;15858;48.338;11.078;2022-07-23T03:24:38;19.60;99.90
28677;DHT22;15858;48.338;11.078;2022-07-23T03:27:05;19.60;99.90
28677;DHT22;15858;48.338;11.078;2022-07-23T03:29:31;19.60;99.90
28677;DHT22;15858;48.338;11.078;2022-07-23T03:31:58;19.60;99.90
28677;DHT22;15858;48.338;11.078;2022-07-23T03:34:24;19.60;99.90
28677;DHT22;15858;48.338;11.078;2022-07-23T03:36:51;19.50;99.90
28677;DHT22;15858;48.338;11.078;2022-07-23T03:39:18;19.50;99.90
28677;DHT22;15858;48.338;11.078;2022-07-23T03:41:44;19.40;99.90
28677;DHT22;15858;48.338;11.078;2022-07-23T03:44:11;19.30;99.90
28677;DHT22;15858;48.338;11.078;2022-07-23T03:46:38;19.30;99.90
28677;DHT22;15858;48.338;11.078;2022-07-23T03:49:04;19.30;99.90
28677;DHT22;15858;48.338;11.078;2022-07-23T03:51:32;19.40;99.90
28677;DHT22;15858;48.338;11.078;2022-07-23T03:53:59;19.50;99.90
28677;DHT22;15858;48.338;11.078;2022-07-23T03:56:26;19.60;99.90
28677;DHT22;15858;48.338;11.078;2022-07-23T03:58:52;19.50;99.90
28677;DHT22;15858;48.338;11.078;2022-07-23T04:01:19;19.40;99.90
28677;DHT22;15858;48.338;11.078;2022-07-23T04:03:46;19.40;99.90
28677;DHT22;15858;48.338;11.078;2022-07-23T04:06:12;19.30;99.90
28677;DHT22;15858;48.338;11.078;2022-07-23T04:08:39;19.40;99.90
28677;DHT22;15858;48.338;11.078;2022-07-23T04:11:06;19.30;99.90
28677;DHT22;15858;48.338;11.078;2022-07-23T04:13:32;19.40;99.90
28677;DHT22;15858;48.338;11.078;2022-07-23T04:15:59;19.40;99.90
28677;DHT22;15858;48.338;11.078;2022-07-23T04:18:26;19.30;99.90
28677;DHT22;15858;48.338;11.078;2022-07-23T04:20:53;19.40;99.90
28677;DHT22;15858;48.338;11.078;2022-07-23T04:23:19;19.40;99.90
28677;DHT22;15858;48.338;11.078;2022-07-23T04:25:46;19.40;99.90
28677;DHT22;15858;48.338;11.078;2022-07-23T04:28:13;19.30;99.90
28677;DHT22;15858;48.338;11.078;2022-07-23T04:30:39;19.30;99.90
28677;DHT22;15858;48.338;11.078;2022-07-23T04:33:06;19.40;99.90
28677;DHT22;15858;48.338;11.078;2022-07-23T04:35:34;19.40;99.90
28677;DHT22;15858;48.338;11.078;2022-07-23T04:38:01;19.40;99.90
28677;DHT22;15858;48.338;11.078;2022-07-23T04:40:28;19.40;99.90
28677;DHT22;15858;48.338;11.078;2022-07-23T04:42:55;19.50;99.90
28677;DHT22;15858;48.338;11.078;2022-07-23T04:45:22;19.50;99.90
28677;DHT22;15858;48.338;11.078;2022-07-23T04:47:49;19.60;99.90
28677;DHT22;15858;48.338;11.078;2022-07-23T04:50:16;19.50;99.90
28677;DHT22;15858;48.338;11.078;2022-07-23T04:52:43;19.50;99.90
28677;DHT22;15858;48.338;11.078;2022-07-23T04:55:10;19.50;99.90
28677;DHT22;15858;48.338;11.078;2022-07-23T04:57:36;19.60;99.90
28677;DHT22;15858;48.338;11.078;2022-07-23T05:00:04;19.60;99.90
28677;DHT22;15858;48.338;11.078;2022-07-23T05:02:30;19.60;99.90
28677;DHT22;15858;48.338;11.078;2022-07-23T05:04:58;19.60;99.90
28677;DHT22;15858;48.338;11.078;2022-07-23T05:07:25;19.60;99.90
28677;DHT22;15858;48.338;11.078;2022-07-23T05:09:52;19.60;99.90
28677;DHT22;15858;48.338;11.078;2022-07-23T05:12:19;19.60;99.90
28677;DHT22;15858;48.338;11.078;2022-07-23T05:14:45;19.60;99.90
28677;DHT22;15858;48.338;11.078;2022-07-23T05:17:12;19.60;99.90
28677;DHT22;15858;48.338;11.078;2022-07-23T05:19:39;19.60;99.90
28677;DHT22;15858;48.338;11.078;2022-07-23T05:22:05;19.60;99.90
28677;DHT22;15858;48.338;11.078;2022-07-23T05:24:32;19.50;99.90
28677;DHT22;15858;48.338;11.078;2022-07-23T05:26:58;19.40;99.90
28677;DHT22;15858;48.338;11.078;2022-07-23T05:29:25;19.30;99.90
28677;DHT22;15858;48.338;11.078;2022-07-23T05:31:52;19.40;99.90
28677;DHT22;15858;48.338;11.078;2022-07-23T05:34:18;19.30;99.90
28677;DHT22;15858;48.338;11.078;2022-07-23T05:36:45;19.40;99.90
28677;DHT22;15858;48.338;11.078;2022-07-23T05:39:12;19.50;99.90
28677;DHT22;15858;48.338;11.078;2022-07-23T05:41:38;19.50;99.90
28677;DHT22;15858;48.338;11.078;2022-07-23T05:44:05;19.60;99.90
28677;DHT22;15858;48.338;11.078;2022-07-23T05:46:31;19.60;99.90
28677;DHT22;15858;48.338;11.078;2022-07-23T05:48:58;19.70;99.90
28677;DHT22;15858;48.338;11.078;2022-07-23T05:51:25;19.70;99.90
28677;DHT22;15858;48.338;11.078;2022-07-23T05:53:52;19.70;99.90
28677;DHT22;15858;48.338;11.078;2022-07-23T05:56:19;19.80;99.90
28677;DHT22;15858;48.338;11.078;2022-07-23T05:58:46;19.90;99.90
28677;DHT22;15858;48.338;11.078;2022-07-23T06:01:13;19.80;99.90
28677;DHT22;15858;48.338;11.078;2022-07-23T06:03:39;19.80;99.90
28677;DHT22;15858;48.338;11.078;2022-07-23T06:06:06;19.80;99.90
28677;DHT22;15858;48.338;11.078;2022-07-23T06:08:33;19.80;99.90
28677;DHT22;15858;48.338;11.078;2022-07-23T06:11:00;19.70;99.90
28677;DHT22;15858;48.338;11.078;2022-07-23T06:13:26;19.70;99.90
28677;DHT22;15858;48.338;11.078;2022-07-23T06:15:53;19.80;99.90
28677;DHT22;15858;48.338;11.078;2022-07-23T06:18:20;19.70;99.90
28677;DHT22;15858;48.338;11.078;2022-07-23T06:20:47;19.70;99.90
28677;DHT22;15858;48.338;11.078;2022-07-23T06:23:16;19.60;99.90
28677;DHT22;15858;48.338;11.078;2022-07-23T06:25:43;19.60;99.90
28677;DHT22;15858;48.338;11.078;2022-07-23T06:28:09;19.50;99.90
28677;DHT22;15858;48.338;11.078;2022-07-23T06:30:36;19.40;99.90
28677;DHT22;15858;48.338;11.078;2022-07-23T06:33:04;19.40;99.90
28677;DHT22;15858;48.338;11.078;2022-07-23T06:35:31;19.40;99.90
28677;DHT22;15858;48.338;11.078;2022-07-23T06:37:57;19.50;99.90
28677;DHT22;15858;48.338;11.078;2022-07-23T06:40:24;19.30;99.90
28677;DHT22;15858;48.338;11.078;2022-07-23T06:42:51;19.40;99.90
28677;DHT22;15858;48.338;11.078;2022-07-23T06:45:18;19.40;99.90
28677;DHT22;15858;48.338;11.078;2022-07-23T06:47:45;19.50;99.90
28677;DHT22;15858;48.338;11.078;2022-07-23T06:50:11;19.50;99.90
28677;DHT22;15858;48.338;11.078;2022-07-23T06:52:38;19.60;99.90
28677;DHT22;15858;48.338;11.078;2022-07-23T06:55:09;19.60;99.90
28677;DHT22;15858;48.338;11.078;2022-07-23T06:57:35;19.60;99.90
28677;DHT22;15858;48.338;11.078;2022-07-23T07:00:03;19.60;99.90
28677;DHT22;15858;48.338;11.078;2022-07-23T07:02:30;19.60;99.90
28677;DHT22;15858;48.338;11.078;2022-07-23T07:04:57;19.50;99.90
28677;DHT22;15858;48.338;11.078;2022-07-23T07:07:30;19.50;99.90
28677;DHT22;15858;48.338;11.078;2022-07-23T07:09:57;19.60;99.90
28677;DHT22;15858;48.338;11.078;2022-07-23T07:12:24;19.60;99.90
28677;DHT22;15858;48.338;11.078;2022-07-23T07:14:50;19.60;99.90
28677;DHT22;15858;48.338;11.078;2022-07-23T07:17:17;19.50;99.90
28677;DHT22;15858;48.338;11.078;2022-07-23T07:19:44;19.50;99.90
28677;DHT22;15858;48.338;11.078;2022-07-23T07:22:10;19.40;99.90
28677;DHT22;15858;48.338;11.078;2022-07-23T07:24:37;19.40;99.90
28677;DHT22;15858;48.338;11.078;2022-07-23T07:27:04;19.40;99.90
28677;DHT22;15858;48.338;11.078;2022-07-23T07:29:31;19.30;99.90
28677;DHT22;15858;48.338;11.078;2022-07-23T07:31:58;19.40;99.90
28677;DHT22;15858;48.338;11.078;2022-07-23T07:34:25;19.30;99.90
28677;DHT22;15858;48.338;11.078;2022-07-23T07:36:51;19.40;99.90
28677;DHT22;15858;48.338;11.078;2022-07-23T07:39:18;19.40;99.90
28677;DHT22;15858;48.338;11.078;2022-07-23T07:41:44;19.30;99.90
28677;DHT22;15858;48.338;11.078;2022-07-23T07:44:11;19.40;99.90
28677;DHT22;15858;48.338;11.078;2022-07-23T07:46:38;19.30;99.90
28677;DHT22;15858;48.338;11.078;2022-07-23T07:49:04;19.40;99.90
28677;DHT22;15858;48.338;11.078;2022-07-23T07:51:33;19.40;99.90
28677;DHT22;15858;48.338;11.078;2022-07-23T07:54:00;19.30;99.90
28677;DHT22;15858;48.338;11.078;2022-07-23T07:56:27;19.40;99.90
28677;DHT22;15858;48.338;11.078;2022-07-23T07:58:54;19.30;99.90
28677;DHT22;15858;48.338;11.078;2022-07-23T08:01:21;19.40;99.90
28677;DHT22;15858;48.338;11.078;2022-07-23T08:03:47;19.40;99.90
28677;DHT22;15858;48.338;11.078;2022-07-23T08:06:14;19.60;99.90
28677;DHT22;15858;48.338;11.078;2022-07-23T08:08:41;19.60;99.90
28677;DHT22;15858;48.338;11.078;2022-07-23T08:11:07;19.70;99.90
28677;DHT22;15858;48.338;11.078;2022-07-23T08:13:34;19.70;99.90
28677;DHT22;15858;48.338;11.078;2022-07-23T08:16:01;19.90;99.90
28677;DHT22;15858;48.338;11.078;2022-07-23T08:18:30;19.80;99.90
28677;DHT22;15858;48.338;11.078;2022-07-23T08:20:57;19.80;99.90
28677;DHT22;15858;48.338;11.078;2022-07-23T08:23:23;19.90;99.90
28677;DHT22;15858;48.338;11.078;2022-07-23T08:25:55;19.90;99.90
28677;DHT22;15858;48.338;11.078;2022-07-23T08:28:22;20.10;99.90
28677;DHT22;15858;48.338;11.078;2022-07-23T08:30:49;20.20;99.90
28677;DHT22;15858;48.338;11.078;2022-07-23T08:33:16;20.30;99.90
28677;DHT22;15858;48.338;11.078;2022-07-23T08:35:57;20.30;99.90
28677;DHT22;15858;48.338;11.078;2022-07-23T08:38:24;20.30;99.90
28677;DHT22;15858;48.338;11.078;2022-07-23T08:40:54;20.50;99.90
28677;DHT22;15858;48.338;11.078;2022-07-23T08:43:22;20.70;99.90
28677;DHT22;15858;48.338;11.078;2022-07-23T08:45:52;20.90;99.90
28677;DHT22;15858;48.338;11.078;2022-07-23T08:48:21;21.10;99.90
28677;DHT22;15858;48.338;11.078;2022-07-23T08:50:52;21.40;99.90
28677;DHT22;15858;48.338;11.078;2022-07-23T08:53:20;21.70;99.90
28677;DHT22;15858;48.338;11.078;2022-07-23T08:55:49;21.70;99.90
28677;DHT22;15858;48.338;11.078;2022-07-23T08:58:16;21.80;99.90
28677;DHT22;15858;48.338;11.078;2022-07-23T09:00:44;22.00;99.90
28677;DHT22;15858;48.338;11.078;2022-07-23T09:03:16;22.10;99.90
28677;DHT22;15858;48.338;11.078;2022-07-23T09:05:44;22.20;99.90
28677;DHT22;15858;48.338;11.078;2022-07-23T09:08:21;22.20;99.90
28677;DHT22;15858;48.338;11.078;2022-07-23T09:10:57;22.30;99.90
28677;DHT22;15858;48.338;11.078;2022-07-23T09:13:38;22.50;99.90
28677;DHT22;15858;48.338;11.078;2022-07-23T09:16:29;22.70;99.90
28677;DHT22;15858;48.338;11.078;2022-07-23T09:18:58;22.70;99.90
28677;DHT22;15858;48.338;11.078;2022-07-23T09:21:27;23.00;99.90
28677;DHT22;15858;48.338;11.078;2022-07-23T09:23:56;23.10;99.90
28677;DHT22;15858;48.338;11.078;2022-07-23T09:29:07;23.40;99.90
28677;DHT22;15858;48.338;11.078;2022-07-23T09:34:21;23.60;99.90
28677;DHT22;15858;48.338;11.078;2022-07-23T09:36:54;23.80;99.90
28677;DHT22;15858;48.338;11.078;2022-07-23T09:39:28;24.00;99.90
28677;DHT22;15858;48.338;11.078;2022-07-23T09:41:58;24.10;99.90
28677;DHT22;15858;48.338;11.078;2022-07-23T09:44:49;24.20;99.90
28677;DHT22;15858;48.338;11.078;2022-07-23T09:47:16;24.30;99.90
28677;DHT22;15858;48.338;11.078;2022-07-23T09:49:59;24.30;99.90
28677;DHT22;15858;48.338;11.078;2022-07-23T09:52:27;24.50;99.90
28677;DHT22;15858;48.338;11.078;2022-07-23T09:55:02;24.70;99.90
28677;DHT22;15858;48.338;11.078;2022-07-23T09:57:29;24.80;99.90
28677;DHT22;15858;48.338;11.078;2022-07-23T10:00:05;25.00;99.90
28677;DHT22;15858;48.338;11.078;2022-07-23T10:02:33;25.10;99.90
28677;DHT22;15858;48.338;11.078;2022-07-23T10:05:01;25.30;99.90
28677;DHT22;15858;48.338;11.078;2022-07-23T10:07:31;25.40;99.90
28677;DHT22;15858;48.338;11.078;2022-07-23T10:10:00;25.50;99.90
28677;DHT22;15858;48.338;11.078;2022-07-23T10:12:27;25.60;99.90
28677;DHT22;15858;48.338;11.078;2022-07-23T10:14:55;25.70;99.90
28677;DHT22;15858;48.338;11.078;2022-07-23T10:17:22;25.70;99.90
28677;DHT22;15858;48.338;11.078;2022-07-23T10:19:49;25.90;99.90
28677;DHT22;15858;48.338;11.078;2022-07-23T10:22:22;25.90;99.90
28677;DHT22;15858;48.338;11.078;2022-07-23T10:30:00;26.00;99.90
28677;DHT22;15858;48.338;11.078;2022-07-23T10:35:41;26.10;99.90
28677;DHT22;15858;48.338;11.078;2022-07-23T10:38:25;26.10;99.90
28677;DHT22;15858;48.338;11.078;2022-07-23T10:40:58;26.20;99.90
28677;DHT22;15858;48.338;11.078;2022-07-23T10:43:26;26.40;99.90
28677;DHT22;15858;48.338;11.078;2022-07-23T10:45:53;26.30;99.90
28677;DHT22;15858;48.338;11.078;2022-07-23T10:48:25;26.60;99.90
28677;DHT22;15858;48.338;11.078;2022-07-23T10:51:12;26.60;99.90
28677;DHT22;15858;48.338;11.078;2022-07-23T10:59:22;26.50;99.90
28677;DHT22;15858;48.338;11.078;2022-07-23T11:01:49;26.70;99.90
28677;DHT22;15858;48.338;11.078;2022-07-23T11:04:17;26.90;99.90
28677;DHT22;15858;48.338;11.078;2022-07-23T11:09:32;26.90;99.90
28677;DHT22;15858;48.338;11.078;2022-07-23T11:22:37;27.20;99.90
28677;DHT22;15858;48.338;11.078;2022-07-23T11:25:04;27.10;99.90
28677;DHT22;15858;48.338;11.078;2022-07-23T11:27:39;27.10;99.90
28677;DHT22;15858;48.338;11.078;2022-07-23T11:30:08;26.90;99.90
28677;DHT22;15858;48.338;11.078;2022-07-23T11:32:44;26.90;99.90
28677;DHT22;15858;48.338;11.078;2022-07-23T11:35:25;26.80;99.90
28677;DHT22;15858;48.338;11.078;2022-07-23T11:37:54;26.80;99.90
28677;DHT22;15858;48.338;11.078;2022-07-23T11:40:21;26.80;99.90
28677;DHT22;15858;48.338;11.078;2022-07-23T11:42:56;26.70;99.90
28677;DHT22;15858;48.338;11.078;2022-07-23T11:45:25;26.70;99.90
28677;DHT22;15858;48.338;11.078;2022-07-23T11:47:52;26.80;99.90
28677;DHT22;15858;48.338;11.078;2022-07-23T11:50:24;26.90;99.90
28677;DHT22;15858;48.338;11.078;2022-07-23T11:52:52;27.10;99.90
28677;DHT22;15858;48.338;11.078;2022-07-23T11:55:18;27.20;99.90
28677;DHT22;15858;48.338;11.078;2022-07-23T11:57:46;27.00;99.90
28677;DHT22;15858;48.338;11.078;2022-07-23T12:00:24;27.20;99.90
28677;DHT22;15858;48.338;11.078;2022-07-23T12:02:57;27.20;99.90
28677;DHT22;15858;48.338;11.078;2022-07-23T12:05:27;26.90;99.90
28677;DHT22;15858;48.338;11.078;2022-07-23T12:07:55;26.90;99.90
28677;DHT22;15858;48.338;11.078;2022-07-23T12:10:30;26.80;99.90
28677;DHT22;15858;48.338;11.078;2022-07-23T12:13:01;26.70;99.90
28677;DHT22;15858;48.338;11.078;2022-07-23T12:15:56;26.60;99.90
28677;DHT22;15858;48.338;11.078;2022-07-23T12:18:25;26.90;99.90
28677;DHT22;15858;48.338;11.078;2022-07-23T12:20:54;26.90;99.90
28677;DHT22;15858;48.338;11.078;2022-07-23T12:23:22;27.20;99.90
28677;DHT22;15858;48.338;11.078;2022-07-23T12:25:51;27.30;99.90
28677;DHT22;15858;48.338;11.078;2022-07-23T12:28:20;27.20;99.90
28677;DHT22;15858;48.338;11.078;2022-07-23T12:30:49;26.90;99.90
28677;DHT22;15858;48.338;11.078;2022-07-23T12:33:29;26.60;99.90
28677;DHT22;15858;48.338;11.078;2022-07-23T12:35:59;26.50;99.90
28677;DHT22;15858;48.338;11.078;2022-07-23T12:38:28;26.30;99.90
28677;DHT22;15858;48.338;11.078;2022-07-23T12:40:56;26.20;99.90
28677;DHT22;15858;48.338;11.078;2022-07-23T12:43:26;26.10;99.90
28677;DHT22;15858;48.338;11.078;2022-07-23T12:46:02;26.10;99.90
28677;DHT22;15858;48.338;11.078;2022-07-23T12:48:34;25.90;99.90
28677;DHT22;15858;48.338;11.078;2022-07-23T12:51:23;26.00;99.90
28677;DHT22;15858;48.338;11.078;2022-07-23T12:53:53;26.20;99.90
28677;DHT22;15858;48.338;11.078;2022-07-23T12:56:35;26.30;99.90
28677;DHT22;15858;48.338;11.078;2022-07-23T12:59:05;26.60;99.90
28677;DHT22;15858;48.338;11.078;2022-07-23T13:01:40;26.90;99.90
28677;DHT22;15858;48.338;11.078;2022-07-23T13:04:12;27.10;99.90
28677;DHT22;15858;48.338;11.078;2022-07-23T13:06:46;27.20;99.90
28677;DHT22;15858;48.338;11.078;2022-07-23T13:09:17;27.00;99.90
28677;DHT22;15858;48.338;11.078;2022-07-23T13:11:45;26.70;99.90
28677;DHT22;15858;48.338;11.078;2022-07-23T13:14:14;26.60;99.90
28677;DHT22;15858;48.338;11.078;2022-07-23T13:16:43;26.60;99.90
28677;DHT22;15858;48.338;11.078;2022-07-23T13:19:11;26.60;99.90
28677;DHT22;15858;48.338;11.078;2022-07-23T13:21:39;26.60;99.90
28677;DHT22;15858;48.338;11.078;2022-07-23T13:24:07;26.80;99.90
28677;DHT22;15858;48.338;11.078;2022-07-23T13:26:35;26.70;99.90
28677;DHT22;15858;48.338;11.078;2022-07-23T13:29:04;26.80;99.90
28677;DHT22;15858;48.338;11.078;2022-07-23T13:31:36;26.80;99.90
28677;DHT22;15858;48.338;11.078;2022-07-23T13:34:04;26.70;99.90
28677;DHT22;15858;48.338;11.078;2022-07-23T13:36:33;26.70;99.90
28677;DHT22;15858;48.338;11.078;2022-07-23T13:39:00;26.60;99.90
28677;DHT22;15858;48.338;11.078;2022-07-23T13:41:27;26.60;99.90
28677;DHT22;15858;48.338;11.078;2022-07-23T13:43:54;26.70;99.90
28677;DHT22;15858;48.338;11.078;2022-07-23T13:46:21;26.80;99.90
28677;DHT22;15858;48.338;11.078;2022-07-23T13:48:47;27.10;99.90
28677;DHT22;15858;48.338;11.078;2022-07-23T13:51:15;27.30;99.90
28677;DHT22;15858;48.338;11.078;2022-07-23T13:53:42;27.60;99.90
28677;DHT22;15858;48.338;11.078;2022-07-23T13:56:09;27.80;99.90
28677;DHT22;15858;48.338;11.078;2022-07-23T13:58:35;27.90;99.90
28677;DHT22;15858;48.338;11.078;2022-07-23T14:01:02;27.70;99.90
28677;DHT22;15858;48.338;11.078;2022-07-23T14:03:29;27.70;99.90
28677;DHT22;15858;48.338;11.078;2022-07-23T14:05:56;27.70;99.90
28677;DHT22;15858;48.338;11.078;2022-07-23T14:08:23;27.70;99.90
28677;DHT22;15858;48.338;11.078;2022-07-23T14:10:50;27.90;99.90
28677;DHT22;15858;48.338;11.078;2022-07-23T14:13:16;27.80;99.90
28677;DHT22;15858;48.338;11.078;2022-07-23T14:15:47;27.90;99.90
28677;DHT22;15858;48.338;11.078;2022-07-23T14:18:16;27.90;99.90
28677;DHT22;15858;48.338;11.078;2022-07-23T14:20:42;28.00;99.90
28677;DHT22;15858;48.338;11.078;2022-07-23T14:23:09;28.00;99.90
28677;DHT22;15858;48.338;11.078;2022-07-23T14:25:38;28.00;99.90
28677;DHT22;15858;48.338;11.078;2022-07-23T14:28:05;28.00;99.90
28677;DHT22;15858;48.338;11.078;2022-07-23T14:30:34;27.90;99.90
28677;DHT22;15858;48.338;11.078;2022-07-23T14:33:01;27.80;99.90
28677;DHT22;15858;48.338;11.078;2022-07-23T14:35:28;27.40;99.90
28677;DHT22;15858;48.338;11.078;2022-07-23T14:37:54;27.30;99.90
28677;DHT22;15858;48.338;11.078;2022-07-23T14:40:22;27.30;99.90
28677;DHT22;15858;48.338;11.078;2022-07-23T14:42:49;27.30;99.90
28677;DHT22;15858;48.338;11.078;2022-07-23T14:45:16;27.30;99.90
28677;DHT22;15858;48.338;11.078;2022-07-23T14:47:45;27.20;99.90
28677;DHT22;15858;48.338;11.078;2022-07-23T14:50:13;27.20;99.90
28677;DHT22;15858;48.338;11.078;2022-07-23T14:52:41;27.20;99.90
28677;DHT22;15858;48.338;11.078;2022-07-23T14:55:08;27.20;99.90
28677;DHT22;15858;48.338;11.078;2022-07-23T14:57:35;27.20;99.90
28677;DHT22;15858;48.338;11.078;2022-07-23T15:00:03;27.30;99.90
28677;DHT22;15858;48.338;11.078;2022-07-23T15:02:30;27.20;99.90
28677;DHT22;15858;48.338;11.078;2022-07-23T15:04:57;27.10;99.90
28677;DHT22;15858;48.338;11.078;2022-07-23T15:07:23;26.90;99.90
28677;DHT22;15858;48.338;11.078;2022-07-23T15:09:52;27.00;99.90
28677;DHT22;15858;48.338;11.078;2022-07-23T15:12:19;26.90;99.90
28677;DHT22;15858;48.338;11.078;2022-07-23T15:14:47;26.80;99.90
28677;DHT22;15858;48.338;11.078;2022-07-23T15:17:14;26.90;99.90
28677;DHT22;15858;48.338;11.078;2022-07-23T15:19:41;26.80;99.90
28677;DHT22;15858;48.338;11.078;2022-07-23T15:22:08;26.60;99.90
28677;DHT22;15858;48.338;11.078;2022-07-23T15:24:35;26.60;99.90
28677;DHT22;15858;48.338;11.078;2022-07-23T15:27:02;26.50;99.90
28677;DHT22;15858;48.338;11.078;2022-07-23T15:29:30;26.50;99.90
28677;DHT22;15858;48.338;11.078;2022-07-23T15:31:56;26.50;99.90
28677;DHT22;15858;48.338;11.078;2022-07-23T15:34:25;26.50;99.90
28677;DHT22;15858;48.338;11.078;2022-07-23T15:36:52;26.50;99.90
28677;DHT22;15858;48.338;11.078;2022-07-23T15:39:19;26.40;99.90
28677;DHT22;15858;48.338;11.078;2022-07-23T15:41:47;26.20;99.90
28677;DHT22;15858;48.338;11.078;2022-07-23T15:44:14;26.20;99.90
28677;DHT22;15858;48.338;11.078;2022-07-23T15:46:58;26.30;99.90
28677;DHT22;15858;48.338;11.078;2022-07-23T15:49:26;26.10;99.90
28677;DHT22;15858;48.338;11.078;2022-07-23T15:51:53;26.10;99.90
28677;DHT22;15858;48.338;11.078;2022-07-23T15:54:21;26.10;99.90